sensor_id;sensor_type;location;lat;lon;timestamp;P1;durP1;ratioP1;P2;durP2;ratioP2
13279;SDS011;6708;49.814;8.652;2023-10-19T00:00:05;5.47;;;5.07;;
13279;SDS011;6708;49.814;8.652;2023-10-19T00:02:48;5.50;;;5.10;;
13279;SDS011;6708;49.814;8.652;2023-10-19T00:05:20;5.70;;;5.30;;
13279;SDS011;6708;49.814;8.652;2023-10-19T00:07:46;5.60;;;5.10;;
13279;SDS011;6708;49.814;8.652;2023-10-19T00:10:15;5.70;;;5.20;;
13279;SDS011;6708;49.814;8.652;2023-10-19T00:12:42;5.17;;;4.87;;
13279;SDS011;6708;49.814;8.652;2023-10-19T00:15:20;5.53;;;5.23;;
13279;SDS011;6708;49.814;8.652;2023-10-19T00:17:49;5.27;;;4.87;;
13279;SDS011;6708;49.814;8.652;2023-10-19T00:20:19;6.30;;;5.77;;
13279;SDS011;6708;49.814;8.652;2023-10-19T00:23:02;6.10;;;5.70;;
13279;SDS011;6708;49.814;8.652;2023-10-19T00:25:32;5.83;;;5.33;;
13279;SDS011;6708;49.814;8.652;2023-10-19T00:27:59;5.43;;;5.10;;
13279;SDS011;6708;49.814;8.652;2023-10-19T00:30:32;5.07;;;4.77;;
13279;SDS011;6708;49.814;8.652;2023-10-19T00:33:01;5.20;;;4.90;;
13279;SDS011;6708;49.814;8.652;2023-10-19T00:35:41;6.07;;;5.67;;
13279;SDS011;6708;49.814;8.652;2023-10-19T00:38:22;5.87;;;5.47;;
13279;SDS011;6708;49.814;8.652;2023-10-19T00:41:05;6.00;;;5.60;;
13279;SDS011;6708;49.814;8.652;2023-10-19T00:43:37;6.43;;;6.03;;
13279;SDS011;6708;49.814;8.652;2023-10-19T00:46:13;6.83;;;6.23;;
13279;SDS011;6708;49.814;8.652;2023-10-19T00:48:48;6.67;;;6.00;;
13279;SDS011;6708;49.814;8.652;2023-10-19T00:51:20;7.57;;;7.07;;
13279;SDS011;6708;49.814;8.652;2023-10-19T00:54:06;7.30;;;6.80;;
13279;SDS011;6708;49.814;8.652;2023-10-19T00:56:39;6.17;;;5.67;;
13279;SDS011;6708;49.814;8.652;2023-10-19T00:59:11;8.27;;;6.10;;
13279;SDS011;6708;49.814;8.652;2023-10-19T01:01:46;6.10;;;5.67;;
13279;SDS011;6708;49.814;8.652;2023-10-19T01:04:19;5.97;;;5.63;;
13279;SDS011;6708;49.814;8.652;2023-10-19T01:06:49;6.33;;;5.93;;
13279;SDS011;6708;49.814;8.652;2023-10-19T01:09:30;5.97;;;5.57;;
13279;SDS011;6708;49.814;8.652;2023-10-19T01:12:00;6.30;;;5.73;;
13279;SDS011;6708;49.814;8.652;2023-10-19T01:14:43;3.37;;;3.27;;
13279;SDS011;6708;49.814;8.652;2023-10-19T01:17:14;3.57;;;3.43;;
13279;SDS011;6708;49.814;8.652;2023-10-19T01:19:43;2.63;;;2.53;;
13279;SDS011;6708;49.814;8.652;2023-10-19T01:22:11;3.07;;;2.87;;
13279;SDS011;6708;49.814;8.652;2023-10-19T01:24:44;2.60;;;2.50;;
13279;SDS011;6708;49.814;8.652;2023-10-19T01:27:13;3.03;;;2.93;;
13279;SDS011;6708;49.814;8.652;2023-10-19T01:29:41;2.83;;;2.73;;
13279;SDS011;6708;49.814;8.652;2023-10-19T01:32:10;3.60;;;3.40;;
13279;SDS011;6708;49.814;8.652;2023-10-19T01:34:40;3.27;;;3.10;;
13279;SDS011;6708;49.814;8.652;2023-10-19T01:37:08;3.37;;;3.17;;
13279;SDS011;6708;49.814;8.652;2023-10-19T01:39:37;3.30;;;3.10;;
13279;SDS011;6708;49.814;8.652;2023-10-19T01:42:10;4.73;;;4.17;;
13279;SDS011;6708;49.814;8.652;2023-10-19T01:44:39;3.37;;;3.07;;
13279;SDS011;6708;49.814;8.652;2023-10-19T01:47:05;4.37;;;4.00;;
13279;SDS011;6708;49.814;8.652;2023-10-19T01:49:33;3.83;;;3.63;;
13279;SDS011;6708;49.814;8.652;2023-10-19T01:51:59;3.90;;;3.30;;
13279;SDS011;6708;49.814;8.652;2023-10-19T01:54:28;3.60;;;3.30;;
13279;SDS011;6708;49.814;8.652;2023-10-19T01:56:55;3.73;;;3.53;;
13279;SDS011;6708;49.814;8.652;2023-10-19T01:59:27;4.17;;;3.87;;
13279;SDS011;6708;49.814;8.652;2023-10-19T02:01:55;3.50;;;3.37;;
13279;SDS011;6708;49.814;8.652;2023-10-19T02:04:22;3.50;;;3.30;;
13279;SDS011;6708;49.814;8.652;2023-10-19T02:06:52;3.73;;;3.43;;
13279;SDS011;6708;49.814;8.652;2023-10-19T02:09:18;2.90;;;2.80;;
13279;SDS011;6708;49.814;8.652;2023-10-19T02:11:49;2.97;;;2.77;;
13279;SDS011;6708;49.814;8.652;2023-10-19T02:14:18;3.00;;;2.90;;
13279;SDS011;6708;49.814;8.652;2023-10-19T02:16:50;3.00;;;2.80;;
13279;SDS011;6708;49.814;8.652;2023-10-19T02:19:18;4.43;;;3.20;;
13279;SDS011;6708;49.814;8.652;2023-10-19T02:21:47;3.23;;;3.07;;
13279;SDS011;6708;49.814;8.652;2023-10-19T02:24:14;3.43;;;3.23;;
13279;SDS011;6708;49.814;8.652;2023-10-19T02:26:43;3.73;;;3.43;;
13279;SDS011;6708;49.814;8.652;2023-10-19T02:29:09;4.00;;;3.43;;
13279;SDS011;6708;49.814;8.652;2023-10-19T02:31:39;4.03;;;3.83;;
13279;SDS011;6708;49.814;8.652;2023-10-19T02:34:09;5.63;;;3.50;;
13279;SDS011;6708;49.814;8.652;2023-10-19T02:36:40;4.60;;;4.20;;
13279;SDS011;6708;49.814;8.652;2023-10-19T02:39:07;4.40;;;4.10;;
13279;SDS011;6708;49.814;8.652;2023-10-19T02:41:37;4.83;;;4.37;;
13279;SDS011;6708;49.814;8.652;2023-10-19T02:44:04;4.60;;;4.40;;
13279;SDS011;6708;49.814;8.652;2023-10-19T02:46:45;4.93;;;4.53;;
13279;SDS011;6708;49.814;8.652;2023-10-19T02:49:13;4.27;;;3.97;;
13279;SDS011;6708;49.814;8.652;2023-10-19T02:51:44;4.77;;;4.37;;
13279;SDS011;6708;49.814;8.652;2023-10-19T02:54:13;4.57;;;4.17;;
13279;SDS011;6708;49.814;8.652;2023-10-19T02:56:45;4.10;;;3.90;;
13279;SDS011;6708;49.814;8.652;2023-10-19T02:59:14;5.30;;;4.00;;
13279;SDS011;6708;49.814;8.652;2023-10-19T03:01:47;3.93;;;3.73;;
13279;SDS011;6708;49.814;8.652;2023-10-19T03:04:19;4.10;;;3.80;;
13279;SDS011;6708;49.814;8.652;2023-10-19T03:06:45;4.10;;;3.80;;
13279;SDS011;6708;49.814;8.652;2023-10-19T03:09:15;3.97;;;3.63;;
13279;SDS011;6708;49.814;8.652;2023-10-19T03:11:47;3.83;;;3.53;;
13279;SDS011;6708;49.814;8.652;2023-10-19T03:14:18;6.63;;;3.97;;
13279;SDS011;6708;49.814;8.652;2023-10-19T03:16:44;3.77;;;3.47;;
13279;SDS011;6708;49.814;8.652;2023-10-19T03:19:13;4.97;;;3.47;;
13279;SDS011;6708;49.814;8.652;2023-10-19T03:21:41;3.93;;;3.63;;
13279;SDS011;6708;49.814;8.652;2023-10-19T03:24:14;4.27;;;4.00;;
13279;SDS011;6708;49.814;8.652;2023-10-19T03:26:48;4.10;;;3.90;;
13279;SDS011;6708;49.814;8.652;2023-10-19T03:29:17;4.10;;;3.80;;
13279;SDS011;6708;49.814;8.652;2023-10-19T03:31:48;4.60;;;4.20;;
13279;SDS011;6708;49.814;8.652;2023-10-19T03:34:18;4.20;;;3.90;;
13279;SDS011;6708;49.814;8.652;2023-10-19T03:36:51;4.40;;;4.10;;
13279;SDS011;6708;49.814;8.652;2023-10-19T03:39:20;4.33;;;3.90;;
13279;SDS011;6708;49.814;8.652;2023-10-19T03:41:48;4.47;;;4.17;;
13279;SDS011;6708;49.814;8.652;2023-10-19T03:44:17;4.10;;;3.90;;
13279;SDS011;6708;49.814;8.652;2023-10-19T03:46:49;4.90;;;4.50;;
13279;SDS011;6708;49.814;8.652;2023-10-19T03:49:23;4.80;;;4.50;;
13279;SDS011;6708;49.814;8.652;2023-10-19T03:51:58;4.77;;;4.40;;
13279;SDS011;6708;49.814;8.652;2023-10-19T03:54:45;6.00;;;4.70;;
13279;SDS011;6708;49.814;8.652;2023-10-19T03:57:15;5.53;;;5.00;;
13279;SDS011;6708;49.814;8.652;2023-10-19T03:59:48;6.33;;;5.83;;
13279;SDS011;6708;49.814;8.652;2023-10-19T04:02:19;5.63;;;5.23;;
13279;SDS011;6708;49.814;8.652;2023-10-19T04:04:48;5.87;;;5.43;;
13279;SDS011;6708;49.814;8.652;2023-10-19T04:07:20;6.23;;;5.70;;
13279;SDS011;6708;49.814;8.652;2023-10-19T04:09:51;5.77;;;5.27;;
13279;SDS011;6708;49.814;8.652;2023-10-19T04:12:34;6.27;;;5.77;;
13279;SDS011;6708;49.814;8.652;2023-10-19T04:15:04;5.80;;;5.30;;
13279;SDS011;6708;49.814;8.652;2023-10-19T04:17:39;5.27;;;4.80;;
13279;SDS011;6708;49.814;8.652;2023-10-19T04:20:08;4.87;;;4.57;;
13279;SDS011;6708;49.814;8.652;2023-10-19T04:22:54;5.07;;;4.77;;
13279;SDS011;6708;49.814;8.652;2023-10-19T04:25:23;5.23;;;4.77;;
13279;SDS011;6708;49.814;8.652;2023-10-19T04:27:54;4.40;;;4.10;;
13279;SDS011;6708;49.814;8.652;2023-10-19T04:30:24;4.20;;;4.00;;
13279;SDS011;6708;49.814;8.652;2023-10-19T04:32:52;4.10;;;3.90;;
13279;SDS011;6708;49.814;8.652;2023-10-19T04:35:23;3.93;;;3.63;;
13279;SDS011;6708;49.814;8.652;2023-10-19T04:37:57;4.07;;;3.87;;
13279;SDS011;6708;49.814;8.652;2023-10-19T04:40:26;4.40;;;4.20;;
13279;SDS011;6708;49.814;8.652;2023-10-19T04:42:55;4.90;;;4.50;;
13279;SDS011;6708;49.814;8.652;2023-10-19T04:45:23;3.70;;;3.50;;
13279;SDS011;6708;49.814;8.652;2023-10-19T04:47:51;3.43;;;3.23;;
13279;SDS011;6708;49.814;8.652;2023-10-19T04:50:20;3.00;;;2.90;;
13279;SDS011;6708;49.814;8.652;2023-10-19T04:52:48;5.67;;;3.37;;
13279;SDS011;6708;49.814;8.652;2023-10-19T04:55:19;3.83;;;3.53;;
13279;SDS011;6708;49.814;8.652;2023-10-19T04:57:47;3.03;;;2.93;;
13279;SDS011;6708;49.814;8.652;2023-10-19T05:00:17;3.93;;;3.63;;
13279;SDS011;6708;49.814;8.652;2023-10-19T05:02:46;3.60;;;3.50;;
13279;SDS011;6708;49.814;8.652;2023-10-19T05:05:17;3.57;;;3.37;;
13279;SDS011;6708;49.814;8.652;2023-10-19T05:07:45;3.20;;;3.00;;
13279;SDS011;6708;49.814;8.652;2023-10-19T05:10:14;3.70;;;3.50;;
13279;SDS011;6708;49.814;8.652;2023-10-19T05:12:45;3.13;;;2.93;;
13279;SDS011;6708;49.814;8.652;2023-10-19T05:15:13;3.97;;;3.77;;
13279;SDS011;6708;49.814;8.652;2023-10-19T05:17:43;4.17;;;3.97;;
13279;SDS011;6708;49.814;8.652;2023-10-19T05:20:12;4.33;;;4.13;;
13279;SDS011;6708;49.814;8.652;2023-10-19T05:22:41;3.77;;;3.57;;
13279;SDS011;6708;49.814;8.652;2023-10-19T05:25:09;4.43;;;3.77;;
13279;SDS011;6708;49.814;8.652;2023-10-19T05:27:38;4.10;;;3.90;;
13279;SDS011;6708;49.814;8.652;2023-10-19T05:30:10;3.70;;;3.50;;
13279;SDS011;6708;49.814;8.652;2023-10-19T05:32:40;4.53;;;4.20;;
13279;SDS011;6708;49.814;8.652;2023-10-19T05:35:08;4.20;;;3.90;;
13279;SDS011;6708;49.814;8.652;2023-10-19T05:37:38;3.70;;;3.57;;
13279;SDS011;6708;49.814;8.652;2023-10-19T05:40:07;4.13;;;3.83;;
13279;SDS011;6708;49.814;8.652;2023-10-19T05:42:40;3.60;;;3.40;;
13279;SDS011;6708;49.814;8.652;2023-10-19T05:45:18;3.93;;;3.73;;
13279;SDS011;6708;49.814;8.652;2023-10-19T05:47:46;3.27;;;3.17;;
13279;SDS011;6708;49.814;8.652;2023-10-19T05:50:15;4.10;;;3.90;;
13279;SDS011;6708;49.814;8.652;2023-10-19T05:52:44;4.03;;;3.83;;
13279;SDS011;6708;49.814;8.652;2023-10-19T05:55:14;4.43;;;4.13;;
13279;SDS011;6708;49.814;8.652;2023-10-19T05:57:42;4.67;;;4.37;;
13279;SDS011;6708;49.814;8.652;2023-10-19T06:00:11;4.53;;;4.23;;
13279;SDS011;6708;49.814;8.652;2023-10-19T06:02:44;3.87;;;3.63;;
13279;SDS011;6708;49.814;8.652;2023-10-19T06:05:14;6.00;;;4.07;;
13279;SDS011;6708;49.814;8.652;2023-10-19T06:07:43;3.70;;;3.53;;
13279;SDS011;6708;49.814;8.652;2023-10-19T06:10:13;3.93;;;3.73;;
13279;SDS011;6708;49.814;8.652;2023-10-19T06:12:43;3.93;;;3.60;;
13279;SDS011;6708;49.814;8.652;2023-10-19T06:15:12;4.23;;;4.03;;
13279;SDS011;6708;49.814;8.652;2023-10-19T06:17:44;3.87;;;3.67;;
13279;SDS011;6708;49.814;8.652;2023-10-19T06:20:14;3.90;;;3.70;;
13279;SDS011;6708;49.814;8.652;2023-10-19T06:22:51;4.00;;;3.77;;
13279;SDS011;6708;49.814;8.652;2023-10-19T06:25:21;4.33;;;4.03;;
13279;SDS011;6708;49.814;8.652;2023-10-19T06:27:50;4.23;;;4.03;;
13279;SDS011;6708;49.814;8.652;2023-10-19T06:30:22;3.90;;;3.70;;
13279;SDS011;6708;49.814;8.652;2023-10-19T06:32:54;4.33;;;4.03;;
13279;SDS011;6708;49.814;8.652;2023-10-19T06:35:26;4.47;;;4.20;;
13279;SDS011;6708;49.814;8.652;2023-10-19T06:37:57;4.57;;;4.17;;
13279;SDS011;6708;49.814;8.652;2023-10-19T06:40:27;3.70;;;3.50;;
13279;SDS011;6708;49.814;8.652;2023-10-19T06:42:56;3.43;;;3.23;;
13279;SDS011;6708;49.814;8.652;2023-10-19T06:45:27;3.87;;;3.57;;
13279;SDS011;6708;49.814;8.652;2023-10-19T06:47:59;4.17;;;3.90;;
13279;SDS011;6708;49.814;8.652;2023-10-19T06:50:29;3.70;;;3.40;;
13279;SDS011;6708;49.814;8.652;2023-10-19T06:52:57;4.10;;;3.90;;
13279;SDS011;6708;49.814;8.652;2023-10-19T06:55:25;4.00;;;3.80;;
13279;SDS011;6708;49.814;8.652;2023-10-19T06:57:54;3.77;;;3.57;;
13279;SDS011;6708;49.814;8.652;2023-10-19T07:00:24;4.40;;;4.20;;
13279;SDS011;6708;49.814;8.652;2023-10-19T07:02:54;3.60;;;3.50;;
13279;SDS011;6708;49.814;8.652;2023-10-19T07:05:28;4.07;;;3.87;;
13279;SDS011;6708;49.814;8.652;2023-10-19T07:07:58;4.10;;;3.90;;
13279;SDS011;6708;49.814;8.652;2023-10-19T07:10:27;5.13;;;4.73;;
13279;SDS011;6708;49.814;8.652;2023-10-19T07:12:57;4.70;;;4.20;;
13279;SDS011;6708;49.814;8.652;2023-10-19T07:15:25;3.93;;;3.73;;
13279;SDS011;6708;49.814;8.652;2023-10-19T07:17:55;4.40;;;4.10;;
13279;SDS011;6708;49.814;8.652;2023-10-19T07:20:23;4.37;;;4.13;;
13279;SDS011;6708;49.814;8.652;2023-10-19T07:23:00;4.07;;;3.77;;
13279;SDS011;6708;49.814;8.652;2023-10-19T07:25:35;5.00;;;4.70;;
13279;SDS011;6708;49.814;8.652;2023-10-19T07:28:08;3.97;;;3.77;;
13279;SDS011;6708;49.814;8.652;2023-10-19T07:30:38;4.30;;;3.90;;
13279;SDS011;6708;49.814;8.652;2023-10-19T07:33:06;4.50;;;3.80;;
13279;SDS011;6708;49.814;8.652;2023-10-19T07:35:35;4.30;;;4.03;;
13279;SDS011;6708;49.814;8.652;2023-10-19T07:38:07;3.80;;;3.60;;
13279;SDS011;6708;49.814;8.652;2023-10-19T07:40:35;3.90;;;3.70;;
13279;SDS011;6708;49.814;8.652;2023-10-19T07:43:04;3.53;;;3.43;;
13279;SDS011;6708;49.814;8.652;2023-10-19T07:45:33;4.53;;;4.23;;
13279;SDS011;6708;49.814;8.652;2023-10-19T07:48:02;4.63;;;4.17;;
13279;SDS011;6708;49.814;8.652;2023-10-19T07:50:36;4.40;;;4.13;;
13279;SDS011;6708;49.814;8.652;2023-10-19T07:53:08;3.77;;;3.57;;
13279;SDS011;6708;49.814;8.652;2023-10-19T07:55:37;3.87;;;3.67;;
13279;SDS011;6708;49.814;8.652;2023-10-19T07:58:05;3.80;;;3.70;;
13279;SDS011;6708;49.814;8.652;2023-10-19T08:00:34;3.87;;;3.67;;
13279;SDS011;6708;49.814;8.652;2023-10-19T08:03:03;3.80;;;3.60;;
13279;SDS011;6708;49.814;8.652;2023-10-19T08:05:33;4.03;;;3.63;;
13279;SDS011;6708;49.814;8.652;2023-10-19T08:08:03;3.97;;;3.67;;
13279;SDS011;6708;49.814;8.652;2023-10-19T08:10:35;3.57;;;3.27;;
13279;SDS011;6708;49.814;8.652;2023-10-19T08:13:03;3.77;;;3.50;;
13279;SDS011;6708;49.814;8.652;2023-10-19T08:15:32;3.60;;;3.40;;
13279;SDS011;6708;49.814;8.652;2023-10-19T08:18:01;3.80;;;3.60;;
13279;SDS011;6708;49.814;8.652;2023-10-19T08:20:31;3.60;;;3.50;;
13279;SDS011;6708;49.814;8.652;2023-10-19T08:23:02;3.70;;;3.50;;
13279;SDS011;6708;49.814;8.652;2023-10-19T08:25:31;3.70;;;3.50;;
13279;SDS011;6708;49.814;8.652;2023-10-19T08:28:02;3.40;;;3.20;;
13279;SDS011;6708;49.814;8.652;2023-10-19T08:30:31;3.40;;;3.30;;
13279;SDS011;6708;49.814;8.652;2023-10-19T08:33:00;3.40;;;3.20;;
13279;SDS011;6708;49.814;8.652;2023-10-19T08:35:29;3.27;;;3.17;;
13279;SDS011;6708;49.814;8.652;2023-10-19T08:37:57;4.60;;;4.30;;
13279;SDS011;6708;49.814;8.652;2023-10-19T08:40:26;4.10;;;3.80;;
13279;SDS011;6708;49.814;8.652;2023-10-19T08:42:54;6.53;;;3.37;;
13279;SDS011;6708;49.814;8.652;2023-10-19T08:45:26;3.13;;;2.93;;
13279;SDS011;6708;49.814;8.652;2023-10-19T08:47:58;4.97;;;2.47;;
13279;SDS011;6708;49.814;8.652;2023-10-19T08:50:28;2.20;;;2.10;;
13279;SDS011;6708;49.814;8.652;2023-10-19T08:52:59;1.60;;;1.33;;
13279;SDS011;6708;49.814;8.652;2023-10-19T08:55:28;2.57;;;1.43;;
13279;SDS011;6708;49.814;8.652;2023-10-19T08:57:57;1.57;;;1.47;;
13279;SDS011;6708;49.814;8.652;2023-10-19T09:00:28;1.63;;;1.37;;
13279;SDS011;6708;49.814;8.652;2023-10-19T09:03:12;1.23;;;1.10;;
13279;SDS011;6708;49.814;8.652;2023-10-19T09:05:42;2.10;;;2.00;;
13279;SDS011;6708;49.814;8.652;2023-10-19T09:08:15;3.60;;;1.60;;
13279;SDS011;6708;49.814;8.652;2023-10-19T09:10:45;2.47;;;1.50;;
13279;SDS011;6708;49.814;8.652;2023-10-19T09:13:14;1.17;;;1.10;;
13279;SDS011;6708;49.814;8.652;2023-10-19T09:15:46;1.33;;;0.90;;
13279;SDS011;6708;49.814;8.652;2023-10-19T09:18:19;1.00;;;1.00;;
13279;SDS011;6708;49.814;8.652;2023-10-19T09:20:48;1.00;;;1.00;;
13279;SDS011;6708;49.814;8.652;2023-10-19T09:23:27;2.80;;;1.00;;
13279;SDS011;6708;49.814;8.652;2023-10-19T09:25:56;2.63;;;1.33;;
13279;SDS011;6708;49.814;8.652;2023-10-19T09:28:25;2.13;;;1.10;;
13279;SDS011;6708;49.814;8.652;2023-10-19T09:30:56;1.43;;;1.10;;
13279;SDS011;6708;49.814;8.652;2023-10-19T09:33:25;1.60;;;1.50;;
13279;SDS011;6708;49.814;8.652;2023-10-19T09:35:55;2.80;;;1.50;;
13279;SDS011;6708;49.814;8.652;2023-10-19T09:38:26;1.10;;;1.10;;
13279;SDS011;6708;49.814;8.652;2023-10-19T09:40:55;1.30;;;1.20;;
13279;SDS011;6708;49.814;8.652;2023-10-19T09:43:29;2.50;;;1.20;;
13279;SDS011;6708;49.814;8.652;2023-10-19T09:46:06;1.77;;;1.23;;
13279;SDS011;6708;49.814;8.652;2023-10-19T09:48:38;1.43;;;1.33;;
13279;SDS011;6708;49.814;8.652;2023-10-19T09:51:08;1.13;;;1.10;;
13279;SDS011;6708;49.814;8.652;2023-10-19T09:53:38;2.37;;;1.27;;
13279;SDS011;6708;49.814;8.652;2023-10-19T09:56:08;2.50;;;1.67;;
13279;SDS011;6708;49.814;8.652;2023-10-19T09:58:41;1.40;;;1.30;;
13279;SDS011;6708;49.814;8.652;2023-10-19T10:01:15;3.47;;;1.53;;
13279;SDS011;6708;49.814;8.652;2023-10-19T10:03:47;3.20;;;1.20;;
13279;SDS011;6708;49.814;8.652;2023-10-19T10:06:17;2.17;;;1.40;;
13279;SDS011;6708;49.814;8.652;2023-10-19T10:08:46;1.00;;;1.00;;
13279;SDS011;6708;49.814;8.652;2023-10-19T10:11:21;2.30;;;1.07;;
13279;SDS011;6708;49.814;8.652;2023-10-19T10:13:52;1.57;;;1.33;;
13279;SDS011;6708;49.814;8.652;2023-10-19T10:16:26;2.77;;;1.30;;
13279;SDS011;6708;49.814;8.652;2023-10-19T10:18:55;1.00;;;1.00;;
13279;SDS011;6708;49.814;8.652;2023-10-19T10:21:25;1.40;;;1.07;;
13279;SDS011;6708;49.814;8.652;2023-10-19T10:23:55;2.20;;;1.60;;
13279;SDS011;6708;49.814;8.652;2023-10-19T10:26:25;1.57;;;1.40;;
13279;SDS011;6708;49.814;8.652;2023-10-19T10:29:07;2.00;;;1.40;;
13279;SDS011;6708;49.814;8.652;2023-10-19T10:31:49;1.40;;;1.30;;
13279;SDS011;6708;49.814;8.652;2023-10-19T10:37:11;0.90;;;0.90;;
13279;SDS011;6708;49.814;8.652;2023-10-19T10:39:39;3.67;;;1.00;;
13279;SDS011;6708;49.814;8.652;2023-10-19T10:42:10;1.90;;;1.13;;
13279;SDS011;6708;49.814;8.652;2023-10-19T10:44:40;0.93;;;0.90;;
13279;SDS011;6708;49.814;8.652;2023-10-19T10:47:15;2.00;;;0.97;;
13279;SDS011;6708;49.814;8.652;2023-10-19T10:49:49;2.10;;;1.40;;
13279;SDS011;6708;49.814;8.652;2023-10-19T10:52:28;1.67;;;1.40;;
13279;SDS011;6708;49.814;8.652;2023-10-19T10:54:57;1.97;;;1.70;;
13279;SDS011;6708;49.814;8.652;2023-10-19T10:57:30;5.20;;;2.07;;
13279;SDS011;6708;49.814;8.652;2023-10-19T11:00:03;6.53;;;1.77;;
13279;SDS011;6708;49.814;8.652;2023-10-19T11:02:35;2.97;;;1.97;;
13279;SDS011;6708;49.814;8.652;2023-10-19T11:05:07;1.83;;;1.47;;
13279;SDS011;6708;49.814;8.652;2023-10-19T11:07:37;1.80;;;1.63;;
13279;SDS011;6708;49.814;8.652;2023-10-19T11:10:06;1.93;;;1.83;;
13279;SDS011;6708;49.814;8.652;2023-10-19T11:12:35;1.87;;;1.63;;
13279;SDS011;6708;49.814;8.652;2023-10-19T11:15:04;3.20;;;2.07;;
13279;SDS011;6708;49.814;8.652;2023-10-19T11:17:41;1.97;;;1.80;;
13279;SDS011;6708;49.814;8.652;2023-10-19T11:20:20;1.90;;;1.80;;
13279;SDS011;6708;49.814;8.652;2023-10-19T11:22:49;4.40;;;1.90;;
13279;SDS011;6708;49.814;8.652;2023-10-19T11:25:18;3.67;;;2.00;;
13279;SDS011;6708;49.814;8.652;2023-10-19T11:27:47;2.63;;;2.13;;
13279;SDS011;6708;49.814;8.652;2023-10-19T11:30:23;2.07;;;1.87;;
13279;SDS011;6708;49.814;8.652;2023-10-19T11:32:55;4.30;;;2.60;;
13279;SDS011;6708;49.814;8.652;2023-10-19T11:35:26;2.17;;;2.07;;
13279;SDS011;6708;49.814;8.652;2023-10-19T11:37:57;2.67;;;1.97;;
13279;SDS011;6708;49.814;8.652;2023-10-19T11:40:27;1.63;;;1.40;;
13279;SDS011;6708;49.814;8.652;2023-10-19T11:42:56;2.40;;;2.07;;
13279;SDS011;6708;49.814;8.652;2023-10-19T11:45:26;2.33;;;1.87;;
13279;SDS011;6708;49.814;8.652;2023-10-19T11:47:57;1.87;;;1.77;;
13279;SDS011;6708;49.814;8.652;2023-10-19T11:50:25;2.10;;;1.90;;
13279;SDS011;6708;49.814;8.652;2023-10-19T11:52:54;4.90;;;2.17;;
13279;SDS011;6708;49.814;8.652;2023-10-19T11:55:22;2.23;;;2.10;;
13279;SDS011;6708;49.814;8.652;2023-10-19T11:57:51;3.47;;;1.83;;
13279;SDS011;6708;49.814;8.652;2023-10-19T12:00:19;3.90;;;1.80;;
13279;SDS011;6708;49.814;8.652;2023-10-19T12:03:01;2.17;;;1.90;;
13279;SDS011;6708;49.814;8.652;2023-10-19T12:05:31;2.13;;;1.90;;
13279;SDS011;6708;49.814;8.652;2023-10-19T12:08:02;2.07;;;1.70;;
13279;SDS011;6708;49.814;8.652;2023-10-19T12:10:31;1.90;;;1.80;;
13279;SDS011;6708;49.814;8.652;2023-10-19T12:13:01;3.97;;;2.07;;
13279;SDS011;6708;49.814;8.652;2023-10-19T12:15:31;2.00;;;1.90;;
13279;SDS011;6708;49.814;8.652;2023-10-19T12:18:02;4.00;;;1.40;;
13279;SDS011;6708;49.814;8.652;2023-10-19T12:20:31;1.80;;;1.70;;
13279;SDS011;6708;49.814;8.652;2023-10-19T12:23:00;4.30;;;2.07;;
13279;SDS011;6708;49.814;8.652;2023-10-19T12:25:30;1.83;;;1.47;;
13279;SDS011;6708;49.814;8.652;2023-10-19T12:28:00;1.80;;;1.67;;
13279;SDS011;6708;49.814;8.652;2023-10-19T12:30:29;1.53;;;1.47;;
13279;SDS011;6708;49.814;8.652;2023-10-19T12:33:04;1.20;;;1.17;;
13279;SDS011;6708;49.814;8.652;2023-10-19T12:35:36;1.87;;;1.60;;
13279;SDS011;6708;49.814;8.652;2023-10-19T12:38:15;1.50;;;1.40;;
13279;SDS011;6708;49.814;8.652;2023-10-19T12:40:45;1.40;;;1.30;;
13279;SDS011;6708;49.814;8.652;2023-10-19T12:43:16;1.93;;;1.70;;
13279;SDS011;6708;49.814;8.652;2023-10-19T12:45:47;5.47;;;1.70;;
13279;SDS011;6708;49.814;8.652;2023-10-19T12:48:21;2.43;;;1.50;;
13279;SDS011;6708;49.814;8.652;2023-10-19T12:50:54;1.47;;;1.37;;
13279;SDS011;6708;49.814;8.652;2023-10-19T12:53:22;1.50;;;1.50;;
13279;SDS011;6708;49.814;8.652;2023-10-19T12:55:51;2.23;;;1.47;;
13279;SDS011;6708;49.814;8.652;2023-10-19T12:58:19;4.50;;;1.83;;
13279;SDS011;6708;49.814;8.652;2023-10-19T13:00:48;1.33;;;1.33;;
13279;SDS011;6708;49.814;8.652;2023-10-19T13:03:17;1.80;;;1.63;;
13279;SDS011;6708;49.814;8.652;2023-10-19T13:05:49;1.90;;;1.80;;
13279;SDS011;6708;49.814;8.652;2023-10-19T13:08:18;1.63;;;1.63;;
13279;SDS011;6708;49.814;8.652;2023-10-19T13:10:47;2.93;;;1.60;;
13279;SDS011;6708;49.814;8.652;2023-10-19T13:13:16;4.03;;;1.60;;
13279;SDS011;6708;49.814;8.652;2023-10-19T13:15:48;2.43;;;1.50;;
13279;SDS011;6708;49.814;8.652;2023-10-19T13:18:16;1.70;;;1.60;;
13279;SDS011;6708;49.814;8.652;2023-10-19T13:20:55;1.90;;;1.80;;
13279;SDS011;6708;49.814;8.652;2023-10-19T13:23:26;1.60;;;1.50;;
13279;SDS011;6708;49.814;8.652;2023-10-19T13:25:55;1.77;;;1.73;;
13279;SDS011;6708;49.814;8.652;2023-10-19T13:28:33;2.23;;;1.80;;
13279;SDS011;6708;49.814;8.652;2023-10-19T13:31:04;1.60;;;1.60;;
13279;SDS011;6708;49.814;8.652;2023-10-19T13:33:34;1.97;;;1.87;;
13279;SDS011;6708;49.814;8.652;2023-10-19T13:36:06;1.97;;;1.80;;
13279;SDS011;6708;49.814;8.652;2023-10-19T13:38:34;1.63;;;1.53;;
13279;SDS011;6708;49.814;8.652;2023-10-19T13:41:03;1.80;;;1.70;;
13279;SDS011;6708;49.814;8.652;2023-10-19T13:43:34;2.50;;;2.30;;
13279;SDS011;6708;49.814;8.652;2023-10-19T13:46:03;3.47;;;2.17;;
13279;SDS011;6708;49.814;8.652;2023-10-19T13:48:32;1.90;;;1.80;;
13279;SDS011;6708;49.814;8.652;2023-10-19T13:51:01;2.10;;;2.00;;
13279;SDS011;6708;49.814;8.652;2023-10-19T13:53:40;2.30;;;2.10;;
13279;SDS011;6708;49.814;8.652;2023-10-19T13:56:10;2.00;;;1.90;;
13279;SDS011;6708;49.814;8.652;2023-10-19T13:58:39;4.17;;;2.20;;
13279;SDS011;6708;49.814;8.652;2023-10-19T14:01:08;1.90;;;1.80;;
13279;SDS011;6708;49.814;8.652;2023-10-19T14:03:38;2.27;;;2.07;;
13279;SDS011;6708;49.814;8.652;2023-10-19T14:06:11;2.47;;;2.00;;
13279;SDS011;6708;49.814;8.652;2023-10-19T14:08:42;1.90;;;1.80;;
13279;SDS011;6708;49.814;8.652;2023-10-19T14:11:12;1.67;;;1.57;;
13279;SDS011;6708;49.814;8.652;2023-10-19T14:13:41;2.00;;;1.90;;
13279;SDS011;6708;49.814;8.652;2023-10-19T14:16:10;2.00;;;1.90;;
13279;SDS011;6708;49.814;8.652;2023-10-19T14:18:38;1.90;;;1.80;;
13279;SDS011;6708;49.814;8.652;2023-10-19T14:21:11;1.40;;;1.40;;
13279;SDS011;6708;49.814;8.652;2023-10-19T14:23:44;2.10;;;2.00;;
13279;SDS011;6708;49.814;8.652;2023-10-19T14:26:13;1.50;;;1.50;;
13279;SDS011;6708;49.814;8.652;2023-10-19T14:28:42;1.70;;;1.57;;
13279;SDS011;6708;49.814;8.652;2023-10-19T14:31:11;1.47;;;1.47;;
13279;SDS011;6708;49.814;8.652;2023-10-19T14:33:39;3.13;;;1.57;;
13279;SDS011;6708;49.814;8.652;2023-10-19T14:36:08;1.57;;;1.57;;
13279;SDS011;6708;49.814;8.652;2023-10-19T14:38:37;4.43;;;1.77;;
13279;SDS011;6708;49.814;8.652;2023-10-19T14:41:11;2.27;;;2.17;;
13279;SDS011;6708;49.814;8.652;2023-10-19T14:43:40;2.10;;;2.00;;
13279;SDS011;6708;49.814;8.652;2023-10-19T14:46:08;2.07;;;1.97;;
13279;SDS011;6708;49.814;8.652;2023-10-19T14:48:38;1.90;;;1.80;;
13279;SDS011;6708;49.814;8.652;2023-10-19T14:51:06;1.87;;;1.77;;
13279;SDS011;6708;49.814;8.652;2023-10-19T14:53:35;2.10;;;1.90;;
13279;SDS011;6708;49.814;8.652;2023-10-19T14:56:03;2.53;;;1.70;;
13279;SDS011;6708;49.814;8.652;2023-10-19T14:58:35;1.57;;;1.57;;
13279;SDS011;6708;49.814;8.652;2023-10-19T15:01:04;1.87;;;1.80;;
13279;SDS011;6708;49.814;8.652;2023-10-19T15:03:40;1.97;;;1.87;;
13279;SDS011;6708;49.814;8.652;2023-10-19T15:06:08;1.87;;;1.77;;
13279;SDS011;6708;49.814;8.652;2023-10-19T15:08:39;2.20;;;2.00;;
13279;SDS011;6708;49.814;8.652;2023-10-19T15:11:07;1.97;;;1.87;;
13279;SDS011;6708;49.814;8.652;2023-10-19T15:13:38;2.30;;;2.13;;
13279;SDS011;6708;49.814;8.652;2023-10-19T15:16:07;1.60;;;1.60;;
13279;SDS011;6708;49.814;8.652;2023-10-19T15:18:37;1.77;;;1.67;;
13279;SDS011;6708;49.814;8.652;2023-10-19T15:21:06;1.57;;;1.57;;
13279;SDS011;6708;49.814;8.652;2023-10-19T15:23:35;1.83;;;1.73;;